Zion Crossroads, Virginia
Current Conditions -  °F | °C
As of 11:35 AM on Saturday 22 Nov 2014 (Local Time) from KGVE Reporting Station
Clear Clear  
Wind Chill: 37°   Ceiling: Unl
Heat Index: 44°   Visibility: 10mi
Dew Point: 14°   Wind: 15mph
Humidity: 30%   Direction: 200°SSW
Pressure: 30.42"   Gusts: 21mph
Location:  38.0919°N, 78.1851°W
Report Text: KGVE 221635Z AUTO 20013G18KT 10SM CLR 07/M10 A3042 RMK AO1 T00671099
Loading
Personal Weather Stations






























Interactive Weather Map New forecast layout! Learn more

10-Day Weather Forecast

Advertisements
Track Severe Weather on mobile